sensor_id;sensor_type;location;lat;lon;timestamp;P1;durP1;ratioP1;P2;durP2;ratioP2
2712;SDS011;1366;47.988;7.856;2022-07-30T04:02:38;5.77;;;4.40;;
2712;SDS011;1366;47.988;7.856;2022-07-30T04:05:05;4.60;;;4.23;;
2712;SDS011;1366;47.988;7.856;2022-07-30T04:07:31;5.20;;;4.80;;
2712;SDS011;1366;47.988;7.856;2022-07-30T04:09:57;5.20;;;4.87;;
2712;SDS011;1366;47.988;7.856;2022-07-30T04:12:23;4.70;;;4.40;;
2712;SDS011;1366;47.988;7.856;2022-07-30T04:14:49;4.63;;;4.07;;
2712;SDS011;1366;47.988;7.856;2022-07-30T04:17:20;5.13;;;4.60;;
2712;SDS011;1366;47.988;7.856;2022-07-30T04:19:48;5.10;;;4.70;;
2712;SDS011;1366;47.988;7.856;2022-07-30T04:22:16;4.93;;;4.53;;
2712;SDS011;1366;47.988;7.856;2022-07-30T04:24:43;4.63;;;4.33;;
2712;SDS011;1366;47.988;7.856;2022-07-30T04:27:09;4.80;;;4.40;;
2712;SDS011;1366;47.988;7.856;2022-07-30T04:29:36;6.40;;;5.13;;
2712;SDS011;1366;47.988;7.856;2022-07-30T04:32:02;5.23;;;4.83;;
2712;SDS011;1366;47.988;7.856;2022-07-30T04:34:28;5.00;;;4.60;;
2712;SDS011;1366;47.988;7.856;2022-07-30T04:36:54;4.33;;;4.13;;
2712;SDS011;1366;47.988;7.856;2022-07-30T04:39:20;4.77;;;4.47;;
2712;SDS011;1366;47.988;7.856;2022-07-30T04:41:46;4.80;;;4.40;;
2712;SDS011;1366;47.988;7.856;2022-07-30T04:44:12;5.00;;;4.60;;
2712;SDS011;1366;47.988;7.856;2022-07-30T04:46:38;5.03;;;4.73;;
2712;SDS011;1366;47.988;7.856;2022-07-30T04:49:04;4.87;;;4.57;;
2712;SDS011;1366;47.988;7.856;2022-07-30T04:51:32;5.10;;;4.80;;
2712;SDS011;1366;47.988;7.856;2022-07-30T04:53:58;5.10;;;4.80;;
2712;SDS011;1366;47.988;7.856;2022-07-30T04:56:25;4.97;;;4.60;;
2712;SDS011;1366;47.988;7.856;2022-07-30T04:58:53;5.00;;;4.60;;
2712;SDS011;1366;47.988;7.856;2022-07-30T05:01:21;5.20;;;4.90;;
2712;SDS011;1366;47.988;7.856;2022-07-30T05:03:49;5.17;;;4.80;;
2712;SDS011;1366;47.988;7.856;2022-07-30T05:06:15;5.20;;;4.80;;
2712;SDS011;1366;47.988;7.856;2022-07-30T05:08:42;5.40;;;5.00;;
2712;SDS011;1366;47.988;7.856;2022-07-30T05:11:12;9.30;;;4.80;;
2712;SDS011;1366;47.988;7.856;2022-07-30T05:13:41;5.30;;;4.90;;
2712;SDS011;1366;47.988;7.856;2022-07-30T05:16:07;5.30;;;4.90;;
2712;SDS011;1366;47.988;7.856;2022-07-30T05:18:34;4.80;;;4.40;;
2712;SDS011;1366;47.988;7.856;2022-07-30T05:21:00;5.33;;;4.90;;
2712;SDS011;1366;47.988;7.856;2022-07-30T05:23:26;5.30;;;5.00;;
2712;SDS011;1366;47.988;7.856;2022-07-30T05:25:52;5.20;;;4.83;;
2712;SDS011;1366;47.988;7.856;2022-07-30T05:28:18;5.33;;;4.97;;
2712;SDS011;1366;47.988;7.856;2022-07-30T05:30:44;5.53;;;5.07;;
2712;SDS011;1366;47.988;7.856;2022-07-30T05:33:10;6.27;;;5.67;;
2712;SDS011;1366;47.988;7.856;2022-07-30T05:35:36;5.90;;;4.63;;
2712;SDS011;1366;47.988;7.856;2022-07-30T05:38:02;5.50;;;5.10;;
2712;SDS011;1366;47.988;7.856;2022-07-30T05:40:28;5.33;;;4.83;;
2712;SDS011;1366;47.988;7.856;2022-07-30T05:42:54;6.27;;;5.77;;
2712;SDS011;1366;47.988;7.856;2022-07-30T05:45:20;5.27;;;4.73;;
2712;SDS011;1366;47.988;7.856;2022-07-30T05:47:46;5.57;;;5.07;;
2712;SDS011;1366;47.988;7.856;2022-07-30T05:50:12;5.47;;;4.97;;
2712;SDS011;1366;47.988;7.856;2022-07-30T05:52:38;5.73;;;5.20;;
2712;SDS011;1366;47.988;7.856;2022-07-30T05:55:04;6.13;;;4.80;;
2712;SDS011;1366;47.988;7.856;2022-07-30T05:57:33;6.00;;;5.50;;
2712;SDS011;1366;47.988;7.856;2022-07-30T06:00:00;5.37;;;4.97;;
2712;SDS011;1366;47.988;7.856;2022-07-30T06:02:26;5.17;;;4.87;;
2712;SDS011;1366;47.988;7.856;2022-07-30T06:04:52;5.80;;;5.30;;
2712;SDS011;1366;47.988;7.856;2022-07-30T06:07:18;6.07;;;5.57;;
2712;SDS011;1366;47.988;7.856;2022-07-30T06:09:44;5.27;;;4.97;;
2712;SDS011;1366;47.988;7.856;2022-07-30T06:12:11;5.47;;;5.17;;
2712;SDS011;1366;47.988;7.856;2022-07-30T06:14:37;5.53;;;5.13;;
2712;SDS011;1366;47.988;7.856;2022-07-30T06:17:03;5.50;;;5.00;;
2712;SDS011;1366;47.988;7.856;2022-07-30T06:19:29;5.30;;;4.97;;
2712;SDS011;1366;47.988;7.856;2022-07-30T06:21:55;6.17;;;5.70;;
2712;SDS011;1366;47.988;7.856;2022-07-30T06:24:21;5.87;;;5.27;;
2712;SDS011;1366;47.988;7.856;2022-07-30T06:26:47;5.40;;;5.00;;
2712;SDS011;1366;47.988;7.856;2022-07-30T06:29:13;6.13;;;5.63;;
2712;SDS011;1366;47.988;7.856;2022-07-30T06:31:40;5.60;;;5.10;;
2712;SDS011;1366;47.988;7.856;2022-07-30T06:34:06;6.03;;;5.53;;
2712;SDS011;1366;47.988;7.856;2022-07-30T06:36:32;5.20;;;4.80;;
2712;SDS011;1366;47.988;7.856;2022-07-30T06:38:58;5.83;;;5.30;;
2712;SDS011;1366;47.988;7.856;2022-07-30T06:41:24;5.47;;;5.07;;
2712;SDS011;1366;47.988;7.856;2022-07-30T06:43:50;5.83;;;5.47;;
2712;SDS011;1366;47.988;7.856;2022-07-30T06:46:16;6.83;;;5.50;;
2712;SDS011;1366;47.988;7.856;2022-07-30T06:48:42;5.90;;;5.40;;
2712;SDS011;1366;47.988;7.856;2022-07-30T06:51:08;5.77;;;5.37;;
2712;SDS011;1366;47.988;7.856;2022-07-30T06:53:34;5.70;;;5.30;;
2712;SDS011;1366;47.988;7.856;2022-07-30T06:56:00;5.87;;;5.40;;
2712;SDS011;1366;47.988;7.856;2022-07-30T06:58:26;5.47;;;5.07;;
2712;SDS011;1366;47.988;7.856;2022-07-30T07:00:53;5.63;;;5.23;;
2712;SDS011;1366;47.988;7.856;2022-07-30T07:03:19;5.50;;;5.00;;
2712;SDS011;1366;47.988;7.856;2022-07-30T07:05:45;5.73;;;5.23;;
2712;SDS011;1366;47.988;7.856;2022-07-30T07:08:11;6.17;;;5.13;;
2712;SDS011;1366;47.988;7.856;2022-07-30T07:10:37;5.70;;;5.13;;
2712;SDS011;1366;47.988;7.856;2022-07-30T07:13:03;5.30;;;4.90;;
2712;SDS011;1366;47.988;7.856;2022-07-30T07:15:29;6.20;;;5.70;;
2712;SDS011;1366;47.988;7.856;2022-07-30T07:17:55;7.43;;;5.40;;
2712;SDS011;1366;47.988;7.856;2022-07-30T07:20:22;6.20;;;5.60;;
2712;SDS011;1366;47.988;7.856;2022-07-30T07:22:48;7.87;;;5.30;;
2712;SDS011;1366;47.988;7.856;2022-07-30T07:25:14;6.20;;;5.67;;
2712;SDS011;1366;47.988;7.856;2022-07-30T07:27:40;6.20;;;5.67;;
2712;SDS011;1366;47.988;7.856;2022-07-30T07:30:06;5.47;;;5.00;;
2712;SDS011;1366;47.988;7.856;2022-07-30T07:32:33;5.93;;;5.43;;
2712;SDS011;1366;47.988;7.856;2022-07-30T07:34:59;5.60;;;5.20;;
2712;SDS011;1366;47.988;7.856;2022-07-30T07:37:25;5.70;;;5.23;;
2712;SDS011;1366;47.988;7.856;2022-07-30T07:39:52;7.13;;;5.53;;
2712;SDS011;1366;47.988;7.856;2022-07-30T07:42:18;7.20;;;5.70;;
2712;SDS011;1366;47.988;7.856;2022-07-30T07:44:44;6.67;;;5.80;;
2712;SDS011;1366;47.988;7.856;2022-07-30T07:47:10;6.10;;;5.70;;
2712;SDS011;1366;47.988;7.856;2022-07-30T07:49:36;5.70;;;5.20;;
2712;SDS011;1366;47.988;7.856;2022-07-30T07:52:02;5.83;;;5.47;;
2712;SDS011;1366;47.988;7.856;2022-07-30T07:54:28;7.37;;;5.27;;
2712;SDS011;1366;47.988;7.856;2022-07-30T07:56:54;6.47;;;5.97;;
2712;SDS011;1366;47.988;7.856;2022-07-30T07:59:20;5.17;;;4.80;;
2712;SDS011;1366;47.988;7.856;2022-07-30T08:01:47;6.27;;;5.67;;
2712;SDS011;1366;47.988;7.856;2022-07-30T08:04:13;6.37;;;5.73;;
2712;SDS011;1366;47.988;7.856;2022-07-30T08:06:39;6.30;;;5.80;;
2712;SDS011;1366;47.988;7.856;2022-07-30T08:09:05;5.93;;;5.40;;
2712;SDS011;1366;47.988;7.856;2022-07-30T08:11:31;5.83;;;5.43;;
2712;SDS011;1366;47.988;7.856;2022-07-30T08:13:57;5.90;;;5.30;;
2712;SDS011;1366;47.988;7.856;2022-07-30T08:16:23;6.50;;;5.90;;
2712;SDS011;1366;47.988;7.856;2022-07-30T08:18:49;6.20;;;5.70;;
2712;SDS011;1366;47.988;7.856;2022-07-30T08:21:15;5.60;;;5.20;;
2712;SDS011;1366;47.988;7.856;2022-07-30T08:23:41;6.67;;;5.37;;
2712;SDS011;1366;47.988;7.856;2022-07-30T08:26:08;5.70;;;5.30;;
2712;SDS011;1366;47.988;7.856;2022-07-30T08:28:34;6.13;;;5.60;;
2712;SDS011;1366;47.988;7.856;2022-07-30T08:31:00;7.20;;;5.87;;
2712;SDS011;1366;47.988;7.856;2022-07-30T08:33:27;6.17;;;5.77;;
2712;SDS011;1366;47.988;7.856;2022-07-30T08:35:53;5.80;;;5.40;;
2712;SDS011;1366;47.988;7.856;2022-07-30T08:38:19;6.17;;;5.60;;
2712;SDS011;1366;47.988;7.856;2022-07-30T08:40:45;6.80;;;6.00;;
2712;SDS011;1366;47.988;7.856;2022-07-30T08:43:11;5.80;;;5.30;;
2712;SDS011;1366;47.988;7.856;2022-07-30T08:45:37;5.93;;;5.47;;
2712;SDS011;1366;47.988;7.856;2022-07-30T08:48:06;5.07;;;4.67;;
2712;SDS011;1366;47.988;7.856;2022-07-30T08:50:32;5.63;;;5.13;;
2712;SDS011;1366;47.988;7.856;2022-07-30T08:52:59;4.73;;;4.43;;
2712;SDS011;1366;47.988;7.856;2022-07-30T08:55:26;4.27;;;4.03;;
2712;SDS011;1366;47.988;7.856;2022-07-30T08:57:52;5.30;;;4.47;;
2712;SDS011;1366;47.988;7.856;2022-07-30T09:00:19;4.70;;;4.30;;
2712;SDS011;1366;47.988;7.856;2022-07-30T09:02:45;4.67;;;4.23;;
2712;SDS011;1366;47.988;7.856;2022-07-30T09:05:12;4.93;;;4.53;;
2712;SDS011;1366;47.988;7.856;2022-07-30T09:07:38;5.43;;;4.47;;
2712;SDS011;1366;47.988;7.856;2022-07-30T09:10:05;4.80;;;4.40;;
2712;SDS011;1366;47.988;7.856;2022-07-30T09:12:33;4.43;;;4.03;;
2712;SDS011;1366;47.988;7.856;2022-07-30T09:17:48;4.83;;;4.30;;
2712;SDS011;1366;47.988;7.856;2022-07-30T09:20:14;4.47;;;4.07;;
2712;SDS011;1366;47.988;7.856;2022-07-30T09:22:41;4.67;;;4.13;;
2712;SDS011;1366;47.988;7.856;2022-07-30T09:25:07;5.50;;;4.50;;
2712;SDS011;1366;47.988;7.856;2022-07-30T09:27:47;4.83;;;4.47;;
2712;SDS011;1366;47.988;7.856;2022-07-30T09:30:13;5.23;;;4.83;;
2712;SDS011;1366;47.988;7.856;2022-07-30T09:32:50;4.83;;;4.43;;
2712;SDS011;1366;47.988;7.856;2022-07-30T09:35:16;4.33;;;3.80;;
2712;SDS011;1366;47.988;7.856;2022-07-30T09:37:44;3.73;;;3.53;;
2712;SDS011;1366;47.988;7.856;2022-07-30T09:42:39;3.67;;;3.47;;
2712;SDS011;1366;47.988;7.856;2022-07-30T09:45:09;3.83;;;3.63;;
2712;SDS011;1366;47.988;7.856;2022-07-30T09:47:40;3.90;;;3.60;;
2712;SDS011;1366;47.988;7.856;2022-07-30T09:50:10;4.50;;;3.90;;
2712;SDS011;1366;47.988;7.856;2022-07-30T09:52:38;3.83;;;3.63;;
2712;SDS011;1366;47.988;7.856;2022-07-30T09:55:05;3.80;;;3.30;;
2712;SDS011;1366;47.988;7.856;2022-07-30T09:57:31;3.90;;;3.60;;
2712;SDS011;1366;47.988;7.856;2022-07-30T09:59:58;3.40;;;3.10;;
2712;SDS011;1366;47.988;7.856;2022-07-30T10:02:40;3.70;;;3.50;;
2712;SDS011;1366;47.988;7.856;2022-07-30T10:07:35;3.60;;;3.40;;
2712;SDS011;1366;47.988;7.856;2022-07-30T10:10:01;3.50;;;3.30;;
2712;SDS011;1366;47.988;7.856;2022-07-30T10:12:27;3.80;;;3.40;;
2712;SDS011;1366;47.988;7.856;2022-07-30T10:14:54;3.40;;;3.20;;
2712;SDS011;1366;47.988;7.856;2022-07-30T10:17:21;4.23;;;3.80;;
2712;SDS011;1366;47.988;7.856;2022-07-30T10:19:47;3.97;;;3.77;;
2712;SDS011;1366;47.988;7.856;2022-07-30T10:22:13;3.80;;;3.50;;
2712;SDS011;1366;47.988;7.856;2022-07-30T10:24:40;3.70;;;3.40;;
2712;SDS011;1366;47.988;7.856;2022-07-30T10:27:06;3.87;;;3.47;;
2712;SDS011;1366;47.988;7.856;2022-07-30T10:29:35;3.83;;;3.53;;
2712;SDS011;1366;47.988;7.856;2022-07-30T10:32:02;4.10;;;3.80;;
2712;SDS011;1366;47.988;7.856;2022-07-30T10:34:29;4.13;;;3.47;;
2712;SDS011;1366;47.988;7.856;2022-07-30T10:36:56;3.83;;;3.53;;
2712;SDS011;1366;47.988;7.856;2022-07-30T10:39:24;5.07;;;3.40;;
2712;SDS011;1366;47.988;7.856;2022-07-30T10:49:25;3.83;;;3.63;;
2712;SDS011;1366;47.988;7.856;2022-07-30T10:51:51;4.10;;;3.80;;
2712;SDS011;1366;47.988;7.856;2022-07-30T10:57:15;4.33;;;4.03;;
2712;SDS011;1366;47.988;7.856;2022-07-30T11:02:23;3.87;;;3.57;;
2712;SDS011;1366;47.988;7.856;2022-07-30T11:04:49;4.50;;;3.80;;
2712;SDS011;1366;47.988;7.856;2022-07-30T11:07:35;4.47;;;4.07;;
2712;SDS011;1366;47.988;7.856;2022-07-30T11:10:02;3.73;;;3.53;;
2712;SDS011;1366;47.988;7.856;2022-07-30T11:15:07;5.50;;;4.20;;
2712;SDS011;1366;47.988;7.856;2022-07-30T11:20:18;4.00;;;3.70;;
2712;SDS011;1366;47.988;7.856;2022-07-30T11:22:45;4.10;;;3.80;;
2712;SDS011;1366;47.988;7.856;2022-07-30T11:27:51;3.97;;;3.70;;
2712;SDS011;1366;47.988;7.856;2022-07-30T11:35:28;4.37;;;4.07;;
2712;SDS011;1366;47.988;7.856;2022-07-30T11:40:24;4.13;;;3.83;;
2712;SDS011;1366;47.988;7.856;2022-07-30T11:42:50;4.23;;;4.03;;
2712;SDS011;1366;47.988;7.856;2022-07-30T11:47:43;7.17;;;4.00;;
2712;SDS011;1366;47.988;7.856;2022-07-30T11:53:03;4.73;;;4.43;;
2712;SDS011;1366;47.988;7.856;2022-07-30T11:55:36;5.07;;;4.20;;
2712;SDS011;1366;47.988;7.856;2022-07-30T11:58:04;5.23;;;4.00;;
2712;SDS011;1366;47.988;7.856;2022-07-30T12:00:38;4.40;;;4.00;;
2712;SDS011;1366;47.988;7.856;2022-07-30T12:03:08;4.17;;;3.90;;
2712;SDS011;1366;47.988;7.856;2022-07-30T12:05:35;4.33;;;3.70;;
2712;SDS011;1366;47.988;7.856;2022-07-30T12:08:01;3.67;;;3.27;;
2712;SDS011;1366;47.988;7.856;2022-07-30T12:10:27;4.30;;;4.10;;
2712;SDS011;1366;47.988;7.856;2022-07-30T12:13:05;4.13;;;3.80;;
2712;SDS011;1366;47.988;7.856;2022-07-30T12:15:32;4.57;;;4.23;;
2712;SDS011;1366;47.988;7.856;2022-07-30T12:17:58;4.20;;;3.90;;
2712;SDS011;1366;47.988;7.856;2022-07-30T12:20:25;4.00;;;3.70;;
2712;SDS011;1366;47.988;7.856;2022-07-30T12:22:52;4.37;;;3.97;;
2712;SDS011;1366;47.988;7.856;2022-07-30T12:25:18;5.23;;;4.20;;
2712;SDS011;1366;47.988;7.856;2022-07-30T12:27:45;6.03;;;4.20;;
2712;SDS011;1366;47.988;7.856;2022-07-30T12:30:12;4.43;;;4.03;;
2712;SDS011;1366;47.988;7.856;2022-07-30T12:32:38;4.30;;;4.00;;
2712;SDS011;1366;47.988;7.856;2022-07-30T12:35:04;5.83;;;4.00;;
2712;SDS011;1366;47.988;7.856;2022-07-30T12:37:30;4.17;;;3.80;;
2712;SDS011;1366;47.988;7.856;2022-07-30T12:40:03;3.83;;;3.53;;
2712;SDS011;1366;47.988;7.856;2022-07-30T12:42:30;3.70;;;3.50;;
2712;SDS011;1366;47.988;7.856;2022-07-30T12:44:56;3.63;;;3.33;;
2712;SDS011;1366;47.988;7.856;2022-07-30T12:49:48;3.53;;;3.33;;
2712;SDS011;1366;47.988;7.856;2022-07-30T12:52:24;4.00;;;3.60;;
2712;SDS011;1366;47.988;7.856;2022-07-30T12:57:27;3.77;;;3.47;;
2712;SDS011;1366;47.988;7.856;2022-07-30T12:59:59;4.20;;;3.80;;
2712;SDS011;1366;47.988;7.856;2022-07-30T13:02:31;3.63;;;3.40;;
2712;SDS011;1366;47.988;7.856;2022-07-30T13:04:57;4.03;;;3.63;;
2712;SDS011;1366;47.988;7.856;2022-07-30T13:07:23;4.40;;;3.80;;
2712;SDS011;1366;47.988;7.856;2022-07-30T13:10:09;4.30;;;3.90;;
2712;SDS011;1366;47.988;7.856;2022-07-30T13:12:36;3.80;;;3.60;;
2712;SDS011;1366;47.988;7.856;2022-07-30T13:15:02;3.93;;;3.63;;
2712;SDS011;1366;47.988;7.856;2022-07-30T13:17:28;4.07;;;3.70;;
2712;SDS011;1366;47.988;7.856;2022-07-30T13:19:54;3.53;;;3.27;;
2712;SDS011;1366;47.988;7.856;2022-07-30T13:22:21;3.83;;;3.63;;
2712;SDS011;1366;47.988;7.856;2022-07-30T13:24:47;3.97;;;3.67;;
2712;SDS011;1366;47.988;7.856;2022-07-30T13:27:13;3.37;;;3.17;;
2712;SDS011;1366;47.988;7.856;2022-07-30T13:29:41;4.00;;;3.47;;
2712;SDS011;1366;47.988;7.856;2022-07-30T13:32:07;3.40;;;3.20;;
2712;SDS011;1366;47.988;7.856;2022-07-30T13:34:33;4.87;;;3.83;;
2712;SDS011;1366;47.988;7.856;2022-07-30T13:36:59;3.97;;;3.67;;
2712;SDS011;1366;47.988;7.856;2022-07-30T13:39:25;3.67;;;3.37;;
2712;SDS011;1366;47.988;7.856;2022-07-30T13:41:51;4.80;;;3.40;;
2712;SDS011;1366;47.988;7.856;2022-07-30T13:44:17;4.23;;;3.80;;
2712;SDS011;1366;47.988;7.856;2022-07-30T13:46:43;4.20;;;3.90;;
2712;SDS011;1366;47.988;7.856;2022-07-30T13:49:09;3.77;;;3.20;;
2712;SDS011;1366;47.988;7.856;2022-07-30T13:51:35;3.67;;;3.47;;
2712;SDS011;1366;47.988;7.856;2022-07-30T13:54:01;5.33;;;3.90;;
2712;SDS011;1366;47.988;7.856;2022-07-30T13:56:28;3.57;;;3.10;;
2712;SDS011;1366;47.988;7.856;2022-07-30T13:58:54;3.63;;;3.33;;
2712;SDS011;1366;47.988;7.856;2022-07-30T14:01:20;4.10;;;3.70;;
2712;SDS011;1366;47.988;7.856;2022-07-30T14:03:46;3.77;;;3.57;;
2712;SDS011;1366;47.988;7.856;2022-07-30T14:06:13;3.57;;;3.37;;
2712;SDS011;1366;47.988;7.856;2022-07-30T14:08:39;4.00;;;3.70;;
2712;SDS011;1366;47.988;7.856;2022-07-30T14:11:05;3.83;;;3.57;;
2712;SDS011;1366;47.988;7.856;2022-07-30T14:13:32;3.67;;;3.37;;
2712;SDS011;1366;47.988;7.856;2022-07-30T14:15:58;3.47;;;3.07;;
2712;SDS011;1366;47.988;7.856;2022-07-30T14:18:25;3.60;;;3.40;;
2712;SDS011;1366;47.988;7.856;2022-07-30T14:20:51;3.37;;;3.17;;
2712;SDS011;1366;47.988;7.856;2022-07-30T14:23:17;3.30;;;3.00;;
2712;SDS011;1366;47.988;7.856;2022-07-30T14:25:44;3.17;;;3.00;;
2712;SDS011;1366;47.988;7.856;2022-07-30T14:28:10;3.37;;;3.17;;
2712;SDS011;1366;47.988;7.856;2022-07-30T14:30:36;3.43;;;3.23;;
2712;SDS011;1366;47.988;7.856;2022-07-30T14:33:03;3.60;;;3.30;;
2712;SDS011;1366;47.988;7.856;2022-07-30T14:35:29;4.97;;;3.30;;
2712;SDS011;1366;47.988;7.856;2022-07-30T14:37:55;3.70;;;3.40;;
2712;SDS011;1366;47.988;7.856;2022-07-30T14:40:21;4.73;;;3.33;;
2712;SDS011;1366;47.988;7.856;2022-07-30T14:42:47;3.77;;;3.57;;
2712;SDS011;1366;47.988;7.856;2022-07-30T14:45:13;3.50;;;3.30;;
2712;SDS011;1366;47.988;7.856;2022-07-30T14:47:39;3.97;;;3.70;;
2712;SDS011;1366;47.988;7.856;2022-07-30T14:50:06;5.13;;;3.50;;
2712;SDS011;1366;47.988;7.856;2022-07-30T14:52:33;4.23;;;3.40;;
2712;SDS011;1366;47.988;7.856;2022-07-30T14:55:01;3.50;;;3.30;;
2712;SDS011;1366;47.988;7.856;2022-07-30T14:57:27;4.17;;;3.63;;
2712;SDS011;1366;47.988;7.856;2022-07-30T14:59:54;4.10;;;3.70;;
2712;SDS011;1366;47.988;7.856;2022-07-30T15:02:20;3.37;;;3.17;;
2712;SDS011;1366;47.988;7.856;2022-07-30T15:04:47;4.00;;;3.40;;
2712;SDS011;1366;47.988;7.856;2022-07-30T15:07:13;4.03;;;3.70;;
2712;SDS011;1366;47.988;7.856;2022-07-30T15:09:39;3.63;;;3.33;;
2712;SDS011;1366;47.988;7.856;2022-07-30T15:12:05;4.37;;;3.97;;
2712;SDS011;1366;47.988;7.856;2022-07-30T15:14:34;3.40;;;3.20;;
2712;SDS011;1366;47.988;7.856;2022-07-30T15:17:00;3.60;;;3.33;;
2712;SDS011;1366;47.988;7.856;2022-07-30T15:19:26;4.30;;;3.67;;
2712;SDS011;1366;47.988;7.856;2022-07-30T15:21:52;4.07;;;3.17;;
2712;SDS011;1366;47.988;7.856;2022-07-30T15:24:19;3.47;;;3.17;;
2712;SDS011;1366;47.988;7.856;2022-07-30T15:26:45;3.83;;;3.53;;
2712;SDS011;1366;47.988;7.856;2022-07-30T15:29:12;3.57;;;3.33;;
2712;SDS011;1366;47.988;7.856;2022-07-30T15:31:38;3.07;;;2.97;;
2712;SDS011;1366;47.988;7.856;2022-07-30T15:34:04;3.53;;;3.30;;
2712;SDS011;1366;47.988;7.856;2022-07-30T15:36:34;3.40;;;3.10;;
2712;SDS011;1366;47.988;7.856;2022-07-30T15:39:00;3.00;;;2.80;;
2712;SDS011;1366;47.988;7.856;2022-07-30T15:41:27;3.67;;;3.37;;
2712;SDS011;1366;47.988;7.856;2022-07-30T15:43:53;3.30;;;3.00;;
2712;SDS011;1366;47.988;7.856;2022-07-30T15:46:19;3.90;;;3.60;;
2712;SDS011;1366;47.988;7.856;2022-07-30T15:48:45;3.17;;;2.97;;
2712;SDS011;1366;47.988;7.856;2022-07-30T15:51:11;6.23;;;3.60;;
2712;SDS011;1366;47.988;7.856;2022-07-30T15:53:37;3.70;;;3.40;;
2712;SDS011;1366;47.988;7.856;2022-07-30T15:56:03;3.40;;;3.10;;
2712;SDS011;1366;47.988;7.856;2022-07-30T15:58:29;3.20;;;3.00;;
2712;SDS011;1366;47.988;7.856;2022-07-30T16:00:55;3.43;;;3.13;;
2712;SDS011;1366;47.988;7.856;2022-07-30T16:03:21;3.30;;;3.10;;
2712;SDS011;1366;47.988;7.856;2022-07-30T16:05:48;2.90;;;2.80;;
2712;SDS011;1366;47.988;7.856;2022-07-30T16:08:14;3.10;;;2.90;;
2712;SDS011;1366;47.988;7.856;2022-07-30T16:10:40;3.60;;;2.90;;
2712;SDS011;1366;47.988;7.856;2022-07-30T16:13:07;3.50;;;3.20;;
2712;SDS011;1366;47.988;7.856;2022-07-30T16:15:33;3.50;;;3.20;;
2712;SDS011;1366;47.988;7.856;2022-07-30T16:17:59;2.93;;;2.73;;
2712;SDS011;1366;47.988;7.856;2022-07-30T16:20:28;3.10;;;2.90;;
2712;SDS011;1366;47.988;7.856;2022-07-30T16:22:54;2.80;;;2.60;;
2712;SDS011;1366;47.988;7.856;2022-07-30T16:25:20;3.73;;;3.40;;
2712;SDS011;1366;47.988;7.856;2022-07-30T16:27:46;2.83;;;2.73;;
2712;SDS011;1366;47.988;7.856;2022-07-30T16:30:12;2.70;;;2.50;;
2712;SDS011;1366;47.988;7.856;2022-07-30T16:32:38;3.70;;;3.20;;
2712;SDS011;1366;47.988;7.856;2022-07-30T16:35:04;4.57;;;3.30;;
2712;SDS011;1366;47.988;7.856;2022-07-30T16:37:30;4.43;;;3.03;;
2712;SDS011;1366;47.988;7.856;2022-07-30T16:39:57;3.37;;;3.10;;
2712;SDS011;1366;47.988;7.856;2022-07-30T16:42:23;3.50;;;3.30;;
2712;SDS011;1366;47.988;7.856;2022-07-30T16:44:49;4.10;;;3.23;;
2712;SDS011;1366;47.988;7.856;2022-07-30T16:47:15;3.50;;;3.30;;
2712;SDS011;1366;47.988;7.856;2022-07-30T16:49:41;3.10;;;2.87;;
2712;SDS011;1366;47.988;7.856;2022-07-30T16:52:07;3.30;;;3.20;;
2712;SDS011;1366;47.988;7.856;2022-07-30T16:54:33;2.90;;;2.70;;
2712;SDS011;1366;47.988;7.856;2022-07-30T16:56:59;3.67;;;3.40;;
2712;SDS011;1366;47.988;7.856;2022-07-30T16:59:27;4.70;;;3.17;;
2712;SDS011;1366;47.988;7.856;2022-07-30T17:01:53;3.87;;;3.47;;
2712;SDS011;1366;47.988;7.856;2022-07-30T17:04:19;3.50;;;3.30;;
2712;SDS011;1366;47.988;7.856;2022-07-30T17:06:45;3.20;;;3.00;;
2712;SDS011;1366;47.988;7.856;2022-07-30T17:09:11;4.07;;;3.00;;
2712;SDS011;1366;47.988;7.856;2022-07-30T17:11:37;3.10;;;2.90;;
2712;SDS011;1366;47.988;7.856;2022-07-30T17:14:03;3.13;;;2.90;;
2712;SDS011;1366;47.988;7.856;2022-07-30T17:16:29;3.53;;;3.30;;
2712;SDS011;1366;47.988;7.856;2022-07-30T17:18:56;2.87;;;2.77;;
2712;SDS011;1366;47.988;7.856;2022-07-30T17:21:22;3.63;;;3.43;;
2712;SDS011;1366;47.988;7.856;2022-07-30T17:23:48;3.17;;;3.03;;
2712;SDS011;1366;47.988;7.856;2022-07-30T17:26:14;3.70;;;3.40;;
2712;SDS011;1366;47.988;7.856;2022-07-30T17:28:40;3.17;;;2.97;;
2712;SDS011;1366;47.988;7.856;2022-07-30T17:31:06;3.67;;;3.47;;
2712;SDS011;1366;47.988;7.856;2022-07-30T17:33:32;3.07;;;2.87;;
2712;SDS011;1366;47.988;7.856;2022-07-30T17:35:59;5.40;;;4.60;;
2712;SDS011;1366;47.988;7.856;2022-07-30T17:38:25;4.10;;;3.70;;
2712;SDS011;1366;47.988;7.856;2022-07-30T17:40:52;4.70;;;3.60;;
2712;SDS011;1366;47.988;7.856;2022-07-30T17:43:18;3.40;;;3.20;;
2712;SDS011;1366;47.988;7.856;2022-07-30T17:45:44;5.00;;;4.60;;
2712;SDS011;1366;47.988;7.856;2022-07-30T17:48:10;7.57;;;4.30;;
2712;SDS011;1366;47.988;7.856;2022-07-30T17:50:37;4.57;;;3.73;;
2712;SDS011;1366;47.988;7.856;2022-07-30T17:53:03;5.03;;;3.53;;
2712;SDS011;1366;47.988;7.856;2022-07-30T17:55:30;4.57;;;4.00;;
2712;SDS011;1366;47.988;7.856;2022-07-30T17:57:58;5.27;;;3.73;;
2712;SDS011;1366;47.988;7.856;2022-07-30T18:00:25;3.37;;;3.17;;
2712;SDS011;1366;47.988;7.856;2022-07-30T18:02:51;4.57;;;3.90;;
2712;SDS011;1366;47.988;7.856;2022-07-30T18:05:17;4.47;;;4.07;;
2712;SDS011;1366;47.988;7.856;2022-07-30T18:07:43;4.80;;;3.50;;
2712;SDS011;1366;47.988;7.856;2022-07-30T18:10:10;3.97;;;3.57;;
2712;SDS011;1366;47.988;7.856;2022-07-30T18:12:36;4.97;;;3.60;;
2712;SDS011;1366;47.988;7.856;2022-07-30T18:15:02;3.47;;;3.23;;
2712;SDS011;1366;47.988;7.856;2022-07-30T18:17:29;3.87;;;3.47;;
2712;SDS011;1366;47.988;7.856;2022-07-30T18:19:55;5.47;;;3.60;;
2712;SDS011;1366;47.988;7.856;2022-07-30T18:22:21;4.40;;;3.47;;
2712;SDS011;1366;47.988;7.856;2022-07-30T18:24:48;4.37;;;3.60;;
2712;SDS011;1366;47.988;7.856;2022-07-30T18:27:14;4.93;;;3.37;;
2712;SDS011;1366;47.988;7.856;2022-07-30T18:29:40;3.77;;;3.47;;
2712;SDS011;1366;47.988;7.856;2022-07-30T18:32:06;4.43;;;3.80;;
2712;SDS011;1366;47.988;7.856;2022-07-30T18:34:33;4.30;;;3.63;;
2712;SDS011;1366;47.988;7.856;2022-07-30T18:36:59;3.47;;;3.27;;
2712;SDS011;1366;47.988;7.856;2022-07-30T18:39:25;3.20;;;3.00;;
2712;SDS011;1366;47.988;7.856;2022-07-30T18:41:51;3.40;;;3.20;;
2712;SDS011;1366;47.988;7.856;2022-07-30T18:44:17;4.50;;;3.83;;
2712;SDS011;1366;47.988;7.856;2022-07-30T18:46:43;4.40;;;4.10;;
2712;SDS011;1366;47.988;7.856;2022-07-30T18:49:09;5.13;;;4.67;;
2712;SDS011;1366;47.988;7.856;2022-07-30T18:51:36;4.83;;;4.20;;
2712;SDS011;1366;47.988;7.856;2022-07-30T18:54:02;4.40;;;4.00;;
2712;SDS011;1366;47.988;7.856;2022-07-30T18:56:29;5.63;;;3.67;;
2712;SDS011;1366;47.988;7.856;2022-07-30T18:58:55;6.77;;;4.20;;
2712;SDS011;1366;47.988;7.856;2022-07-30T19:01:21;3.97;;;3.67;;
2712;SDS011;1366;47.988;7.856;2022-07-30T19:03:48;4.37;;;4.07;;
2712;SDS011;1366;47.988;7.856;2022-07-30T19:06:14;4.03;;;3.70;;
2712;SDS011;1366;47.988;7.856;2022-07-30T19:08:40;4.80;;;3.90;;
2712;SDS011;1366;47.988;7.856;2022-07-30T19:11:06;4.20;;;3.80;;
2712;SDS011;1366;47.988;7.856;2022-07-30T19:13:32;5.93;;;3.77;;
2712;SDS011;1366;47.988;7.856;2022-07-30T19:15:59;4.27;;;3.93;;
2712;SDS011;1366;47.988;7.856;2022-07-30T19:18:25;5.07;;;3.90;;
2712;SDS011;1366;47.988;7.856;2022-07-30T19:20:51;4.10;;;3.80;;
2712;SDS011;1366;47.988;7.856;2022-07-30T19:23:17;4.37;;;4.07;;
2712;SDS011;1366;47.988;7.856;2022-07-30T19:25:43;3.93;;;3.63;;
2712;SDS011;1366;47.988;7.856;2022-07-30T19:28:09;4.10;;;3.90;;
2712;SDS011;1366;47.988;7.856;2022-07-30T19:30:37;4.07;;;3.77;;
2712;SDS011;1366;47.988;7.856;2022-07-30T19:33:07;4.63;;;4.23;;
2712;SDS011;1366;47.988;7.856;2022-07-30T19:35:34;4.40;;;4.10;;
2712;SDS011;1366;47.988;7.856;2022-07-30T19:38:00;6.10;;;5.27;;
2712;SDS011;1366;47.988;7.856;2022-07-30T19:40:26;4.57;;;4.27;;
2712;SDS011;1366;47.988;7.856;2022-07-30T19:42:52;5.17;;;4.77;;
2712;SDS011;1366;47.988;7.856;2022-07-30T19:45:19;5.10;;;4.60;;
2712;SDS011;1366;47.988;7.856;2022-07-30T19:47:45;4.53;;;4.20;;
2712;SDS011;1366;47.988;7.856;2022-07-30T19:50:11;5.37;;;4.87;;
2712;SDS011;1366;47.988;7.856;2022-07-30T19:52:37;4.93;;;4.43;;
2712;SDS011;1366;47.988;7.856;2022-07-30T19:55:04;4.00;;;3.70;;
2712;SDS011;1366;47.988;7.856;2022-07-30T19:57:30;4.83;;;4.40;;
2712;SDS011;1366;47.988;7.856;2022-07-30T19:59:56;4.83;;;4.30;;